首页
METAR-TAF:

METAR-TAF

机场 :

伯灵顿, 艾奥瓦州, 美国

纬度: 40-46-22N, 经度: 091-07-31W, 海拔: 212米

当前天气观测

该预报发布于49分钟前的11:53 UTC
风速3节,风向北转东北
温度 14°C
湿度 94%
气压 1013 hPa
能見度: 16.1公里
天空无云

METAR: KBRL 231153Z AUTO 03003KT 10SM CLR 14/13 A2991 RMK AO2 SLP127 T01390133 10150 20106 56006

时间: 07:42 (12:42 UTC)

预报

该预报发布于1小时和22分钟前的11:20 UTC
预报有效从23日的 12点(UTC)到 24日的 12点(UTC)
风速3节,风向多变
能見度: 10公里
少量云层高于25000英尺
从 23日的 1600点(UTC)
风速8节,风向南转南东
能見度: 10公里
少量云层高于25000英尺
从 24日的 0600点(UTC)
风速7节,风向南转南东
能見度: 10公里
散云层高于25000英尺
从 24日的 1000点(UTC)
风速7节,风向南转南东
能見度: 10公里
多云层高于20000英尺

TAF: KBRL 231120Z 2312/2412 VRB03KT P6SM FEW250 FM231600 16008KT P6SM FEW250 FM240600 15007KT P6SM SCT250 FM241000 15007KT P6SM BKN200

超过4000个机场的气象观测和天气预报(METAR&TAF报告)。

可查询的气象台以黄色和红色小点在地图上表示。

将鼠标移到小点上方,可查看气象台名称。

然后点击查看天气观测和预报。

如需切换地图:点击带黑十字的绿色按钮放大地图;点击带横线的绿色按钮缩小地图;或者点击绿色箭头查看邻近地区的地图。


METAR-TAF: